sensor_id;sensor_type;location;lat;lon;timestamp;P1;durP1;ratioP1;P2;durP2;ratioP2
2320;SDS011;15376;48.540;9.268;2022-07-05T00:02:02;5.17;;;3.60;;
2320;SDS011;15376;48.540;9.268;2022-07-05T00:04:28;4.57;;;4.27;;
2320;SDS011;15376;48.540;9.268;2022-07-05T00:06:53;4.50;;;4.13;;
2320;SDS011;15376;48.540;9.268;2022-07-05T00:09:37;4.63;;;4.23;;
2320;SDS011;15376;48.540;9.268;2022-07-05T00:12:02;5.13;;;3.63;;
2320;SDS011;15376;48.540;9.268;2022-07-05T00:14:28;4.43;;;4.13;;
2320;SDS011;15376;48.540;9.268;2022-07-05T00:16:54;4.33;;;4.03;;
2320;SDS011;15376;48.540;9.268;2022-07-05T00:19:19;4.97;;;4.60;;
2320;SDS011;15376;48.540;9.268;2022-07-05T00:21:44;5.33;;;4.93;;
2320;SDS011;15376;48.540;9.268;2022-07-05T00:24:10;5.57;;;5.03;;
2320;SDS011;15376;48.540;9.268;2022-07-05T00:26:35;4.80;;;4.50;;
2320;SDS011;15376;48.540;9.268;2022-07-05T00:29:00;4.37;;;4.07;;
2320;SDS011;15376;48.540;9.268;2022-07-05T00:31:26;6.13;;;4.53;;
2320;SDS011;15376;48.540;9.268;2022-07-05T00:33:51;4.87;;;4.47;;
2320;SDS011;15376;48.540;9.268;2022-07-05T00:36:16;4.77;;;4.47;;
2320;SDS011;15376;48.540;9.268;2022-07-05T00:38:42;4.80;;;4.30;;
2320;SDS011;15376;48.540;9.268;2022-07-05T00:41:07;4.10;;;3.90;;
2320;SDS011;15376;48.540;9.268;2022-07-05T00:43:32;4.80;;;4.40;;
2320;SDS011;15376;48.540;9.268;2022-07-05T00:45:58;4.57;;;4.17;;
2320;SDS011;15376;48.540;9.268;2022-07-05T00:48:24;6.97;;;5.00;;
2320;SDS011;15376;48.540;9.268;2022-07-05T00:50:50;4.83;;;4.33;;
2320;SDS011;15376;48.540;9.268;2022-07-05T00:53:15;4.90;;;4.50;;
2320;SDS011;15376;48.540;9.268;2022-07-05T00:55:41;5.23;;;4.73;;
2320;SDS011;15376;48.540;9.268;2022-07-05T00:58:09;5.00;;;4.60;;
2320;SDS011;15376;48.540;9.268;2022-07-05T01:00:35;6.00;;;4.60;;
2320;SDS011;15376;48.540;9.268;2022-07-05T01:03:00;4.90;;;4.50;;
2320;SDS011;15376;48.540;9.268;2022-07-05T01:05:26;4.40;;;4.00;;
2320;SDS011;15376;48.540;9.268;2022-07-05T01:07:52;4.97;;;4.47;;
2320;SDS011;15376;48.540;9.268;2022-07-05T01:10:18;4.67;;;4.27;;
2320;SDS011;15376;48.540;9.268;2022-07-05T01:12:44;4.40;;;4.00;;
2320;SDS011;15376;48.540;9.268;2022-07-05T01:15:10;5.93;;;5.10;;
2320;SDS011;15376;48.540;9.268;2022-07-05T01:17:36;6.83;;;5.13;;
2320;SDS011;15376;48.540;9.268;2022-07-05T01:20:03;5.10;;;4.73;;
2320;SDS011;15376;48.540;9.268;2022-07-05T01:22:46;5.30;;;4.80;;
2320;SDS011;15376;48.540;9.268;2022-07-05T01:25:17;7.43;;;4.90;;
2320;SDS011;15376;48.540;9.268;2022-07-05T01:27:43;4.43;;;4.03;;
2320;SDS011;15376;48.540;9.268;2022-07-05T01:30:08;5.53;;;5.13;;
2320;SDS011;15376;48.540;9.268;2022-07-05T01:32:34;5.77;;;5.00;;
2320;SDS011;15376;48.540;9.268;2022-07-05T01:35:01;5.30;;;4.90;;
2320;SDS011;15376;48.540;9.268;2022-07-05T01:37:26;4.87;;;4.50;;
2320;SDS011;15376;48.540;9.268;2022-07-05T01:39:54;4.53;;;4.20;;
2320;SDS011;15376;48.540;9.268;2022-07-05T01:42:20;6.77;;;5.03;;
2320;SDS011;15376;48.540;9.268;2022-07-05T01:44:46;10.53;;;5.00;;
2320;SDS011;15376;48.540;9.268;2022-07-05T01:47:11;6.47;;;4.30;;
2320;SDS011;15376;48.540;9.268;2022-07-05T01:49:41;5.33;;;4.70;;
2320;SDS011;15376;48.540;9.268;2022-07-05T01:52:11;5.07;;;4.57;;
2320;SDS011;15376;48.540;9.268;2022-07-05T01:54:38;4.90;;;4.50;;
2320;SDS011;15376;48.540;9.268;2022-07-05T01:57:04;4.67;;;4.07;;
2320;SDS011;15376;48.540;9.268;2022-07-05T01:59:34;4.10;;;3.70;;
2320;SDS011;15376;48.540;9.268;2022-07-05T02:02:00;12.80;;;4.63;;
2320;SDS011;15376;48.540;9.268;2022-07-05T02:04:26;5.53;;;4.20;;
2320;SDS011;15376;48.540;9.268;2022-07-05T02:06:52;4.00;;;3.70;;
2320;SDS011;15376;48.540;9.268;2022-07-05T02:09:18;4.63;;;4.20;;
2320;SDS011;15376;48.540;9.268;2022-07-05T02:11:43;4.47;;;4.17;;
2320;SDS011;15376;48.540;9.268;2022-07-05T02:14:08;5.20;;;4.73;;
2320;SDS011;15376;48.540;9.268;2022-07-05T02:16:34;4.20;;;3.90;;
2320;SDS011;15376;48.540;9.268;2022-07-05T02:18:59;4.30;;;3.90;;
2320;SDS011;15376;48.540;9.268;2022-07-05T02:21:25;4.73;;;4.33;;
2320;SDS011;15376;48.540;9.268;2022-07-05T02:23:50;4.97;;;4.57;;
2320;SDS011;15376;48.540;9.268;2022-07-05T02:26:16;5.40;;;4.90;;
2320;SDS011;15376;48.540;9.268;2022-07-05T02:28:41;5.17;;;4.77;;
2320;SDS011;15376;48.540;9.268;2022-07-05T02:31:07;6.50;;;4.60;;
2320;SDS011;15376;48.540;9.268;2022-07-05T02:33:33;5.33;;;4.83;;
2320;SDS011;15376;48.540;9.268;2022-07-05T02:36:08;5.40;;;5.00;;
2320;SDS011;15376;48.540;9.268;2022-07-05T02:38:35;4.57;;;4.20;;
2320;SDS011;15376;48.540;9.268;2022-07-05T02:41:04;4.50;;;4.20;;
2320;SDS011;15376;48.540;9.268;2022-07-05T02:43:30;6.40;;;4.73;;
2320;SDS011;15376;48.540;9.268;2022-07-05T02:45:55;5.47;;;4.97;;
2320;SDS011;15376;48.540;9.268;2022-07-05T02:48:20;4.87;;;4.47;;
2320;SDS011;15376;48.540;9.268;2022-07-05T02:50:46;7.87;;;5.30;;
2320;SDS011;15376;48.540;9.268;2022-07-05T02:53:12;5.20;;;4.70;;
2320;SDS011;15376;48.540;9.268;2022-07-05T02:55:38;7.67;;;5.70;;
2320;SDS011;15376;48.540;9.268;2022-07-05T02:58:03;6.03;;;5.00;;
2320;SDS011;15376;48.540;9.268;2022-07-05T03:00:28;5.97;;;5.47;;
2320;SDS011;15376;48.540;9.268;2022-07-05T03:02:54;5.13;;;4.73;;
2320;SDS011;15376;48.540;9.268;2022-07-05T03:05:19;5.40;;;4.90;;
2320;SDS011;15376;48.540;9.268;2022-07-05T03:07:45;5.17;;;4.67;;
2320;SDS011;15376;48.540;9.268;2022-07-05T03:10:10;5.00;;;4.60;;
2320;SDS011;15376;48.540;9.268;2022-07-05T03:12:36;6.50;;;5.33;;
2320;SDS011;15376;48.540;9.268;2022-07-05T03:15:01;5.57;;;4.60;;
2320;SDS011;15376;48.540;9.268;2022-07-05T03:17:26;5.43;;;5.10;;
2320;SDS011;15376;48.540;9.268;2022-07-05T03:19:52;4.60;;;4.30;;
2320;SDS011;15376;48.540;9.268;2022-07-05T03:22:17;5.40;;;5.00;;
2320;SDS011;15376;48.540;9.268;2022-07-05T03:24:42;5.33;;;4.70;;
2320;SDS011;15376;48.540;9.268;2022-07-05T03:27:08;4.90;;;4.60;;
2320;SDS011;15376;48.540;9.268;2022-07-05T03:29:33;5.70;;;5.30;;
2320;SDS011;15376;48.540;9.268;2022-07-05T03:31:58;5.27;;;4.87;;
2320;SDS011;15376;48.540;9.268;2022-07-05T03:34:24;5.30;;;4.90;;
2320;SDS011;15376;48.540;9.268;2022-07-05T03:36:49;8.50;;;6.00;;
2320;SDS011;15376;48.540;9.268;2022-07-05T03:39:15;5.90;;;5.30;;
2320;SDS011;15376;48.540;9.268;2022-07-05T03:41:40;7.70;;;5.40;;
2320;SDS011;15376;48.540;9.268;2022-07-05T03:44:05;11.73;;;5.70;;
2320;SDS011;15376;48.540;9.268;2022-07-05T03:46:31;12.50;;;5.67;;
2320;SDS011;15376;48.540;9.268;2022-07-05T03:48:56;8.50;;;5.60;;
2320;SDS011;15376;48.540;9.268;2022-07-05T03:51:21;6.37;;;5.60;;
2320;SDS011;15376;48.540;9.268;2022-07-05T03:53:47;5.93;;;5.50;;
2320;SDS011;15376;48.540;9.268;2022-07-05T03:56:12;7.33;;;4.80;;
2320;SDS011;15376;48.540;9.268;2022-07-05T03:58:37;7.43;;;5.93;;
2320;SDS011;15376;48.540;9.268;2022-07-05T04:01:03;5.73;;;5.13;;
2320;SDS011;15376;48.540;9.268;2022-07-05T04:03:28;8.70;;;5.30;;
2320;SDS011;15376;48.540;9.268;2022-07-05T04:05:54;4.63;;;4.23;;
2320;SDS011;15376;48.540;9.268;2022-07-05T04:08:19;5.10;;;4.70;;
2320;SDS011;15376;48.540;9.268;2022-07-05T04:10:45;5.93;;;5.50;;
2320;SDS011;15376;48.540;9.268;2022-07-05T04:13:10;9.27;;;5.70;;
2320;SDS011;15376;48.540;9.268;2022-07-05T04:15:35;6.83;;;6.33;;
2320;SDS011;15376;48.540;9.268;2022-07-05T04:18:02;5.90;;;5.50;;
2320;SDS011;15376;48.540;9.268;2022-07-05T04:20:27;5.47;;;5.07;;
2320;SDS011;15376;48.540;9.268;2022-07-05T04:22:54;5.70;;;5.20;;
2320;SDS011;15376;48.540;9.268;2022-07-05T04:25:20;5.87;;;5.33;;
2320;SDS011;15376;48.540;9.268;2022-07-05T04:27:46;6.23;;;5.67;;
2320;SDS011;15376;48.540;9.268;2022-07-05T04:30:13;5.07;;;4.67;;
2320;SDS011;15376;48.540;9.268;2022-07-05T04:32:40;7.23;;;4.90;;
2320;SDS011;15376;48.540;9.268;2022-07-05T04:35:06;7.27;;;5.10;;
2320;SDS011;15376;48.540;9.268;2022-07-05T04:37:32;5.83;;;5.23;;
2320;SDS011;15376;48.540;9.268;2022-07-05T04:39:57;4.73;;;4.30;;
2320;SDS011;15376;48.540;9.268;2022-07-05T04:42:22;7.90;;;5.40;;
2320;SDS011;15376;48.540;9.268;2022-07-05T04:44:48;4.93;;;4.63;;
2320;SDS011;15376;48.540;9.268;2022-07-05T04:47:13;6.60;;;5.83;;
2320;SDS011;15376;48.540;9.268;2022-07-05T04:49:39;4.37;;;4.07;;
2320;SDS011;15376;48.540;9.268;2022-07-05T04:52:04;6.07;;;5.53;;
2320;SDS011;15376;48.540;9.268;2022-07-05T04:54:29;5.03;;;4.63;;
2320;SDS011;15376;48.540;9.268;2022-07-05T04:56:55;5.30;;;4.80;;
2320;SDS011;15376;48.540;9.268;2022-07-05T04:59:20;7.70;;;6.90;;
2320;SDS011;15376;48.540;9.268;2022-07-05T05:01:46;5.40;;;5.00;;
2320;SDS011;15376;48.540;9.268;2022-07-05T05:04:11;4.80;;;4.50;;
2320;SDS011;15376;48.540;9.268;2022-07-05T05:06:36;5.60;;;5.20;;
2320;SDS011;15376;48.540;9.268;2022-07-05T05:09:02;6.33;;;5.60;;
2320;SDS011;15376;48.540;9.268;2022-07-05T05:11:27;5.07;;;4.57;;
2320;SDS011;15376;48.540;9.268;2022-07-05T05:13:53;5.87;;;5.37;;
2320;SDS011;15376;48.540;9.268;2022-07-05T05:16:19;8.00;;;5.20;;
2320;SDS011;15376;48.540;9.268;2022-07-05T05:18:44;5.93;;;5.43;;
2320;SDS011;15376;48.540;9.268;2022-07-05T05:21:10;5.10;;;4.60;;
2320;SDS011;15376;48.540;9.268;2022-07-05T05:23:35;7.03;;;5.10;;
2320;SDS011;15376;48.540;9.268;2022-07-05T05:26:01;5.00;;;4.60;;
2320;SDS011;15376;48.540;9.268;2022-07-05T05:28:26;5.10;;;4.60;;
2320;SDS011;15376;48.540;9.268;2022-07-05T05:30:51;5.10;;;4.60;;
2320;SDS011;15376;48.540;9.268;2022-07-05T05:33:17;5.10;;;4.57;;
2320;SDS011;15376;48.540;9.268;2022-07-05T05:35:42;4.60;;;4.30;;
2320;SDS011;15376;48.540;9.268;2022-07-05T05:38:08;12.33;;;11.13;;
2320;SDS011;15376;48.540;9.268;2022-07-05T05:40:33;7.07;;;6.47;;
2320;SDS011;15376;48.540;9.268;2022-07-05T05:42:59;6.93;;;6.33;;
2320;SDS011;15376;48.540;9.268;2022-07-05T05:45:25;18.10;;;15.03;;
2320;SDS011;15376;48.540;9.268;2022-07-05T05:47:52;8.60;;;7.80;;
2320;SDS011;15376;48.540;9.268;2022-07-05T05:50:25;6.47;;;5.70;;
2320;SDS011;15376;48.540;9.268;2022-07-05T05:52:52;9.07;;;7.60;;
2320;SDS011;15376;48.540;9.268;2022-07-05T05:55:18;8.93;;;8.10;;
2320;SDS011;15376;48.540;9.268;2022-07-05T05:57:45;5.63;;;5.13;;
2320;SDS011;15376;48.540;9.268;2022-07-05T06:00:11;6.37;;;4.77;;
2320;SDS011;15376;48.540;9.268;2022-07-05T06:02:37;8.33;;;6.43;;
2320;SDS011;15376;48.540;9.268;2022-07-05T06:05:03;4.73;;;4.10;;
2320;SDS011;15376;48.540;9.268;2022-07-05T06:07:29;5.47;;;4.97;;
2320;SDS011;15376;48.540;9.268;2022-07-05T06:09:54;5.10;;;4.70;;
2320;SDS011;15376;48.540;9.268;2022-07-05T06:12:20;3.50;;;3.30;;
2320;SDS011;15376;48.540;9.268;2022-07-05T06:14:45;5.60;;;4.20;;
2320;SDS011;15376;48.540;9.268;2022-07-05T06:17:10;4.00;;;3.50;;
2320;SDS011;15376;48.540;9.268;2022-07-05T06:19:36;4.23;;;3.93;;
2320;SDS011;15376;48.540;9.268;2022-07-05T06:22:01;5.87;;;4.10;;
2320;SDS011;15376;48.540;9.268;2022-07-05T06:24:27;3.50;;;3.30;;
2320;SDS011;15376;48.540;9.268;2022-07-05T06:26:52;3.80;;;3.50;;
2320;SDS011;15376;48.540;9.268;2022-07-05T06:29:17;3.27;;;2.97;;
2320;SDS011;15376;48.540;9.268;2022-07-05T06:31:43;4.77;;;3.40;;
2320;SDS011;15376;48.540;9.268;2022-07-05T06:34:08;3.80;;;3.50;;
2320;SDS011;15376;48.540;9.268;2022-07-05T06:36:33;4.57;;;3.40;;
2320;SDS011;15376;48.540;9.268;2022-07-05T06:38:59;3.60;;;3.30;;
2320;SDS011;15376;48.540;9.268;2022-07-05T06:41:24;4.70;;;3.10;;
2320;SDS011;15376;48.540;9.268;2022-07-05T06:43:50;4.10;;;3.80;;
2320;SDS011;15376;48.540;9.268;2022-07-05T06:46:15;3.20;;;3.00;;
2320;SDS011;15376;48.540;9.268;2022-07-05T06:48:40;3.13;;;2.70;;
2320;SDS011;15376;48.540;9.268;2022-07-05T06:51:06;3.77;;;3.30;;
2320;SDS011;15376;48.540;9.268;2022-07-05T06:53:31;4.10;;;3.10;;
2320;SDS011;15376;48.540;9.268;2022-07-05T06:55:56;3.30;;;3.00;;
2320;SDS011;15376;48.540;9.268;2022-07-05T06:58:22;3.10;;;2.80;;
2320;SDS011;15376;48.540;9.268;2022-07-05T07:00:48;3.60;;;2.90;;
2320;SDS011;15376;48.540;9.268;2022-07-05T07:03:13;3.57;;;3.27;;
2320;SDS011;15376;48.540;9.268;2022-07-05T07:05:39;6.67;;;3.77;;
2320;SDS011;15376;48.540;9.268;2022-07-05T07:08:04;4.57;;;2.90;;
2320;SDS011;15376;48.540;9.268;2022-07-05T07:10:48;3.40;;;3.10;;
2320;SDS011;15376;48.540;9.268;2022-07-05T07:13:13;3.30;;;3.00;;
2320;SDS011;15376;48.540;9.268;2022-07-05T07:15:39;3.50;;;3.20;;
2320;SDS011;15376;48.540;9.268;2022-07-05T07:18:05;4.83;;;2.73;;
2320;SDS011;15376;48.540;9.268;2022-07-05T07:20:31;3.00;;;2.80;;
2320;SDS011;15376;48.540;9.268;2022-07-05T07:22:56;8.57;;;3.67;;
2320;SDS011;15376;48.540;9.268;2022-07-05T07:25:22;3.57;;;2.73;;
2320;SDS011;15376;48.540;9.268;2022-07-05T07:27:51;2.87;;;2.67;;
2320;SDS011;15376;48.540;9.268;2022-07-05T07:30:24;3.50;;;3.20;;
2320;SDS011;15376;48.540;9.268;2022-07-05T07:32:51;3.37;;;3.17;;
2320;SDS011;15376;48.540;9.268;2022-07-05T07:35:16;3.10;;;2.80;;
2320;SDS011;15376;48.540;9.268;2022-07-05T07:37:42;2.93;;;2.73;;
2320;SDS011;15376;48.540;9.268;2022-07-05T07:40:07;4.00;;;2.70;;
2320;SDS011;15376;48.540;9.268;2022-07-05T07:42:33;3.80;;;2.90;;
2320;SDS011;15376;48.540;9.268;2022-07-05T07:44:59;2.90;;;2.70;;
2320;SDS011;15376;48.540;9.268;2022-07-05T07:47:28;2.60;;;2.40;;
2320;SDS011;15376;48.540;9.268;2022-07-05T07:49:57;2.70;;;2.50;;
2320;SDS011;15376;48.540;9.268;2022-07-05T07:52:22;5.50;;;2.77;;
2320;SDS011;15376;48.540;9.268;2022-07-05T07:54:48;3.63;;;2.50;;
2320;SDS011;15376;48.540;9.268;2022-07-05T07:57:13;3.47;;;2.40;;
2320;SDS011;15376;48.540;9.268;2022-07-05T07:59:39;2.37;;;2.17;;
2320;SDS011;15376;48.540;9.268;2022-07-05T08:02:04;4.07;;;2.20;;
2320;SDS011;15376;48.540;9.268;2022-07-05T08:04:30;3.13;;;2.33;;
2320;SDS011;15376;48.540;9.268;2022-07-05T08:06:55;2.87;;;2.57;;
2320;SDS011;15376;48.540;9.268;2022-07-05T08:09:20;6.70;;;2.80;;
2320;SDS011;15376;48.540;9.268;2022-07-05T08:11:46;2.43;;;2.23;;
2320;SDS011;15376;48.540;9.268;2022-07-05T08:14:12;2.50;;;2.30;;
2320;SDS011;15376;48.540;9.268;2022-07-05T08:16:39;4.13;;;2.40;;
2320;SDS011;15376;48.540;9.268;2022-07-05T08:19:04;2.70;;;2.30;;
2320;SDS011;15376;48.540;9.268;2022-07-05T08:21:48;2.70;;;2.50;;
2320;SDS011;15376;48.540;9.268;2022-07-05T08:24:14;4.03;;;2.50;;
2320;SDS011;15376;48.540;9.268;2022-07-05T08:26:40;3.17;;;2.87;;
2320;SDS011;15376;48.540;9.268;2022-07-05T08:29:10;2.20;;;2.10;;
2320;SDS011;15376;48.540;9.268;2022-07-05T08:31:37;2.87;;;2.53;;
2320;SDS011;15376;48.540;9.268;2022-07-05T08:34:04;2.70;;;2.50;;
2320;SDS011;15376;48.540;9.268;2022-07-05T08:36:30;2.80;;;2.60;;
2320;SDS011;15376;48.540;9.268;2022-07-05T08:38:55;3.60;;;2.37;;
2320;SDS011;15376;48.540;9.268;2022-07-05T08:41:21;2.60;;;2.27;;
2320;SDS011;15376;48.540;9.268;2022-07-05T08:43:48;2.47;;;2.27;;
2320;SDS011;15376;48.540;9.268;2022-07-05T08:46:15;5.57;;;2.70;;
2320;SDS011;15376;48.540;9.268;2022-07-05T08:48:41;2.70;;;2.50;;
2320;SDS011;15376;48.540;9.268;2022-07-05T08:51:12;2.40;;;2.30;;
2320;SDS011;15376;48.540;9.268;2022-07-05T08:53:39;2.60;;;2.40;;
2320;SDS011;15376;48.540;9.268;2022-07-05T08:56:09;2.83;;;2.63;;
2320;SDS011;15376;48.540;9.268;2022-07-05T08:58:35;6.50;;;2.90;;
2320;SDS011;15376;48.540;9.268;2022-07-05T09:01:02;2.53;;;2.30;;
2320;SDS011;15376;48.540;9.268;2022-07-05T09:03:48;3.13;;;2.80;;
2320;SDS011;15376;48.540;9.268;2022-07-05T09:06:24;2.37;;;2.17;;
2320;SDS011;15376;48.540;9.268;2022-07-05T09:08:51;2.67;;;2.47;;
2320;SDS011;15376;48.540;9.268;2022-07-05T09:11:22;2.67;;;2.47;;
2320;SDS011;15376;48.540;9.268;2022-07-05T09:13:50;2.77;;;2.37;;
2320;SDS011;15376;48.540;9.268;2022-07-05T09:16:16;2.63;;;2.40;;
2320;SDS011;15376;48.540;9.268;2022-07-05T09:18:46;3.20;;;2.60;;
2320;SDS011;15376;48.540;9.268;2022-07-05T09:21:16;4.10;;;2.50;;
2320;SDS011;15376;48.540;9.268;2022-07-05T09:23:53;3.07;;;2.60;;
2320;SDS011;15376;48.540;9.268;2022-07-05T09:29:02;2.40;;;2.30;;
2320;SDS011;15376;48.540;9.268;2022-07-05T09:31:30;8.60;;;2.73;;
2320;SDS011;15376;48.540;9.268;2022-07-05T09:34:10;3.13;;;2.20;;
2320;SDS011;15376;48.540;9.268;2022-07-05T09:36:52;2.87;;;2.67;;
2320;SDS011;15376;48.540;9.268;2022-07-05T09:42:14;3.47;;;2.50;;
2320;SDS011;15376;48.540;9.268;2022-07-05T09:44:48;2.20;;;2.10;;
2320;SDS011;15376;48.540;9.268;2022-07-05T09:47:19;2.73;;;2.50;;
2320;SDS011;15376;48.540;9.268;2022-07-05T09:49:56;4.40;;;2.90;;
2320;SDS011;15376;48.540;9.268;2022-07-05T09:52:30;8.53;;;2.97;;
2320;SDS011;15376;48.540;9.268;2022-07-05T09:57:32;2.20;;;2.00;;
2320;SDS011;15376;48.540;9.268;2022-07-05T10:00:00;2.30;;;2.20;;
2320;SDS011;15376;48.540;9.268;2022-07-05T10:02:34;2.60;;;2.13;;
2320;SDS011;15376;48.540;9.268;2022-07-05T10:05:19;3.80;;;2.50;;
2320;SDS011;15376;48.540;9.268;2022-07-05T10:10:23;3.30;;;2.10;;
2320;SDS011;15376;48.540;9.268;2022-07-05T10:12:51;2.07;;;1.97;;
2320;SDS011;15376;48.540;9.268;2022-07-05T10:15:28;2.40;;;2.20;;
2320;SDS011;15376;48.540;9.268;2022-07-05T10:18:08;3.50;;;1.87;;
2320;SDS011;15376;48.540;9.268;2022-07-05T10:20:41;1.97;;;1.87;;
2320;SDS011;15376;48.540;9.268;2022-07-05T10:23:09;3.47;;;1.87;;
2320;SDS011;15376;48.540;9.268;2022-07-05T10:25:40;2.17;;;1.83;;
2320;SDS011;15376;48.540;9.268;2022-07-05T10:28:07;3.00;;;1.97;;
2320;SDS011;15376;48.540;9.268;2022-07-05T10:30:33;2.43;;;2.03;;
2320;SDS011;15376;48.540;9.268;2022-07-05T10:33:01;2.10;;;1.90;;
2320;SDS011;15376;48.540;9.268;2022-07-05T10:35:27;3.40;;;1.90;;
2320;SDS011;15376;48.540;9.268;2022-07-05T10:37:53;4.17;;;2.43;;
2320;SDS011;15376;48.540;9.268;2022-07-05T10:40:19;1.63;;;1.53;;
2320;SDS011;15376;48.540;9.268;2022-07-05T10:42:51;2.17;;;1.97;;
2320;SDS011;15376;48.540;9.268;2022-07-05T10:58:32;2.03;;;1.63;;
2320;SDS011;15376;48.540;9.268;2022-07-05T11:03:47;1.73;;;1.63;;
2320;SDS011;15376;48.540;9.268;2022-07-05T11:06:23;3.73;;;1.80;;
2320;SDS011;15376;48.540;9.268;2022-07-05T11:14:30;2.00;;;1.80;;
2320;SDS011;15376;48.540;9.268;2022-07-05T11:17:14;3.53;;;1.90;;
2320;SDS011;15376;48.540;9.268;2022-07-05T11:20:03;2.60;;;2.13;;
2320;SDS011;15376;48.540;9.268;2022-07-05T11:22:35;2.83;;;1.90;;
2320;SDS011;15376;48.540;9.268;2022-07-05T11:25:02;2.33;;;2.13;;
2320;SDS011;15376;48.540;9.268;2022-07-05T11:27:29;3.83;;;2.13;;
2320;SDS011;15376;48.540;9.268;2022-07-05T11:29:57;2.40;;;1.73;;
2320;SDS011;15376;48.540;9.268;2022-07-05T11:32:26;2.47;;;1.90;;
2320;SDS011;15376;48.540;9.268;2022-07-05T11:40:32;1.50;;;1.40;;
2320;SDS011;15376;48.540;9.268;2022-07-05T11:43:03;2.60;;;1.80;;
2320;SDS011;15376;48.540;9.268;2022-07-05T11:45:32;2.30;;;1.77;;
2320;SDS011;15376;48.540;9.268;2022-07-05T11:47:58;3.63;;;1.73;;
2320;SDS011;15376;48.540;9.268;2022-07-05T11:50:28;2.10;;;1.77;;
2320;SDS011;15376;48.540;9.268;2022-07-05T11:52:56;3.33;;;1.87;;
2320;SDS011;15376;48.540;9.268;2022-07-05T11:55:23;2.13;;;1.77;;
2320;SDS011;15376;48.540;9.268;2022-07-05T11:57:51;2.73;;;2.07;;
2320;SDS011;15376;48.540;9.268;2022-07-05T12:00:34;5.47;;;1.93;;
2320;SDS011;15376;48.540;9.268;2022-07-05T12:03:05;5.40;;;2.50;;
2320;SDS011;15376;48.540;9.268;2022-07-05T12:05:36;4.13;;;2.10;;
2320;SDS011;15376;48.540;9.268;2022-07-05T12:08:01;2.30;;;1.87;;
2320;SDS011;15376;48.540;9.268;2022-07-05T12:10:27;2.10;;;1.70;;
2320;SDS011;15376;48.540;9.268;2022-07-05T12:13:11;3.90;;;2.33;;
2320;SDS011;15376;48.540;9.268;2022-07-05T12:15:36;2.40;;;1.87;;
2320;SDS011;15376;48.540;9.268;2022-07-05T12:18:05;2.90;;;1.80;;
2320;SDS011;15376;48.540;9.268;2022-07-05T12:20:33;3.67;;;2.27;;
2320;SDS011;15376;48.540;9.268;2022-07-05T12:23:01;2.07;;;1.63;;
2320;SDS011;15376;48.540;9.268;2022-07-05T12:25:27;3.70;;;1.87;;
2320;SDS011;15376;48.540;9.268;2022-07-05T12:27:55;1.53;;;1.30;;
2320;SDS011;15376;48.540;9.268;2022-07-05T12:30:23;1.70;;;1.60;;
2320;SDS011;15376;48.540;9.268;2022-07-05T12:35:40;4.30;;;1.60;;
2320;SDS011;15376;48.540;9.268;2022-07-05T12:40:34;3.10;;;1.90;;
2320;SDS011;15376;48.540;9.268;2022-07-05T12:43:09;2.90;;;1.80;;
2320;SDS011;15376;48.540;9.268;2022-07-05T12:45:39;2.00;;;1.73;;
2320;SDS011;15376;48.540;9.268;2022-07-05T12:48:06;1.90;;;1.80;;
2320;SDS011;15376;48.540;9.268;2022-07-05T12:50:45;4.60;;;1.70;;
2320;SDS011;15376;48.540;9.268;2022-07-05T12:53:12;1.80;;;1.60;;
2320;SDS011;15376;48.540;9.268;2022-07-05T12:55:58;1.80;;;1.70;;
2320;SDS011;15376;48.540;9.268;2022-07-05T12:58:47;1.53;;;1.43;;
2320;SDS011;15376;48.540;9.268;2022-07-05T13:01:23;3.30;;;1.70;;
2320;SDS011;15376;48.540;9.268;2022-07-05T13:04:02;2.33;;;1.60;;
2320;SDS011;15376;48.540;9.268;2022-07-05T13:06:46;2.93;;;1.90;;
2320;SDS011;15376;48.540;9.268;2022-07-05T13:14:45;2.83;;;1.50;;
2320;SDS011;15376;48.540;9.268;2022-07-05T13:17:12;2.57;;;1.77;;
2320;SDS011;15376;48.540;9.268;2022-07-05T13:19:40;1.50;;;1.40;;
2320;SDS011;15376;48.540;9.268;2022-07-05T13:22:06;3.10;;;1.73;;
2320;SDS011;15376;48.540;9.268;2022-07-05T13:24:32;2.20;;;2.00;;
2320;SDS011;15376;48.540;9.268;2022-07-05T13:26:58;1.97;;;1.70;;
2320;SDS011;15376;48.540;9.268;2022-07-05T13:29:24;4.87;;;1.90;;
2320;SDS011;15376;48.540;9.268;2022-07-05T13:31:50;2.20;;;1.60;;
2320;SDS011;15376;48.540;9.268;2022-07-05T13:34:15;1.80;;;1.50;;
2320;SDS011;15376;48.540;9.268;2022-07-05T13:36:41;2.67;;;1.77;;
2320;SDS011;15376;48.540;9.268;2022-07-05T13:39:06;2.03;;;1.60;;
2320;SDS011;15376;48.540;9.268;2022-07-05T13:41:32;2.20;;;1.43;;
2320;SDS011;15376;48.540;9.268;2022-07-05T13:43:57;4.50;;;1.80;;
2320;SDS011;15376;48.540;9.268;2022-07-05T13:46:24;2.50;;;1.70;;
2320;SDS011;15376;48.540;9.268;2022-07-05T13:48:49;2.70;;;1.67;;
2320;SDS011;15376;48.540;9.268;2022-07-05T13:51:14;1.40;;;1.30;;
2320;SDS011;15376;48.540;9.268;2022-07-05T13:53:40;4.90;;;2.00;;
2320;SDS011;15376;48.540;9.268;2022-07-05T13:56:05;3.70;;;2.47;;
2320;SDS011;15376;48.540;9.268;2022-07-05T13:58:32;2.70;;;1.70;;
2320;SDS011;15376;48.540;9.268;2022-07-05T14:00:58;2.00;;;1.80;;
2320;SDS011;15376;48.540;9.268;2022-07-05T14:03:24;2.67;;;1.70;;
2320;SDS011;15376;48.540;9.268;2022-07-05T14:05:50;2.10;;;1.60;;
2320;SDS011;15376;48.540;9.268;2022-07-05T14:08:15;2.80;;;1.60;;
2320;SDS011;15376;48.540;9.268;2022-07-05T14:10:46;1.70;;;1.60;;
2320;SDS011;15376;48.540;9.268;2022-07-05T14:13:15;1.60;;;1.40;;
2320;SDS011;15376;48.540;9.268;2022-07-05T14:15:41;2.50;;;1.80;;
2320;SDS011;15376;48.540;9.268;2022-07-05T14:18:06;2.67;;;2.00;;
2320;SDS011;15376;48.540;9.268;2022-07-05T14:20:31;4.00;;;1.90;;
2320;SDS011;15376;48.540;9.268;2022-07-05T14:22:57;3.60;;;1.40;;
2320;SDS011;15376;48.540;9.268;2022-07-05T14:25:22;4.57;;;1.60;;
2320;SDS011;15376;48.540;9.268;2022-07-05T14:27:47;2.00;;;1.50;;
2320;SDS011;15376;48.540;9.268;2022-07-05T14:30:13;2.00;;;1.80;;
2320;SDS011;15376;48.540;9.268;2022-07-05T14:32:38;2.17;;;1.80;;
2320;SDS011;15376;48.540;9.268;2022-07-05T14:35:04;2.13;;;1.90;;
2320;SDS011;15376;48.540;9.268;2022-07-05T14:37:29;4.30;;;1.60;;
2320;SDS011;15376;48.540;9.268;2022-07-05T14:39:55;2.27;;;2.07;;
2320;SDS011;15376;48.540;9.268;2022-07-05T14:42:21;2.23;;;2.03;;
2320;SDS011;15376;48.540;9.268;2022-07-05T14:44:46;2.10;;;1.90;;
2320;SDS011;15376;48.540;9.268;2022-07-05T14:47:12;2.73;;;1.80;;
2320;SDS011;15376;48.540;9.268;2022-07-05T14:49:37;2.93;;;1.93;;
2320;SDS011;15376;48.540;9.268;2022-07-05T14:52:02;2.00;;;1.80;;
2320;SDS011;15376;48.540;9.268;2022-07-05T14:54:28;2.93;;;1.90;;
2320;SDS011;15376;48.540;9.268;2022-07-05T14:56:53;12.13;;;2.03;;
2320;SDS011;15376;48.540;9.268;2022-07-05T14:59:19;3.00;;;2.00;;
2320;SDS011;15376;48.540;9.268;2022-07-05T15:01:44;5.73;;;2.50;;
2320;SDS011;15376;48.540;9.268;2022-07-05T15:04:09;1.70;;;1.60;;
2320;SDS011;15376;48.540;9.268;2022-07-05T15:06:35;3.07;;;1.90;;
2320;SDS011;15376;48.540;9.268;2022-07-05T15:09:00;2.23;;;2.00;;
2320;SDS011;15376;48.540;9.268;2022-07-05T15:11:26;2.07;;;1.63;;
2320;SDS011;15376;48.540;9.268;2022-07-05T15:13:53;2.80;;;1.93;;
2320;SDS011;15376;48.540;9.268;2022-07-05T15:16:19;2.10;;;1.90;;
2320;SDS011;15376;48.540;9.268;2022-07-05T15:18:45;2.67;;;1.90;;
2320;SDS011;15376;48.540;9.268;2022-07-05T15:21:10;1.70;;;1.60;;
2320;SDS011;15376;48.540;9.268;2022-07-05T15:23:36;2.37;;;2.07;;
2320;SDS011;15376;48.540;9.268;2022-07-05T15:26:01;3.17;;;2.00;;
2320;SDS011;15376;48.540;9.268;2022-07-05T15:28:27;2.30;;;2.10;;
2320;SDS011;15376;48.540;9.268;2022-07-05T15:30:52;2.43;;;1.87;;
2320;SDS011;15376;48.540;9.268;2022-07-05T15:33:18;3.23;;;1.97;;
2320;SDS011;15376;48.540;9.268;2022-07-05T15:35:48;1.93;;;1.70;;
2320;SDS011;15376;48.540;9.268;2022-07-05T15:38:13;2.27;;;1.80;;
2320;SDS011;15376;48.540;9.268;2022-07-05T15:40:39;2.63;;;2.07;;
2320;SDS011;15376;48.540;9.268;2022-07-05T15:43:04;2.13;;;1.77;;
2320;SDS011;15376;48.540;9.268;2022-07-05T15:45:30;3.60;;;2.23;;
2320;SDS011;15376;48.540;9.268;2022-07-05T15:47:55;2.53;;;1.90;;
2320;SDS011;15376;48.540;9.268;2022-07-05T15:50:20;2.20;;;2.00;;